sensor_id;sensor_type;location;lat;lon;timestamp;P1;P2;P0
78999;PMS7003;68406;53.914;27.416;2023-12-20T00:01:38;7.5;6.2;4.4
78999;PMS7003;68406;53.914;27.416;2023-12-20T00:07:18;8.6;6.7;4.9
78999;PMS7003;68406;53.914;27.416;2023-12-20T00:11:58;7.4;6.5;4.7
78999;PMS7003;68406;53.914;27.416;2023-12-20T00:17:18;7.3;5.7;4.2
78999;PMS7003;68406;53.914;27.416;2023-12-20T00:22:08;7.7;5.7;4.1
78999;PMS7003;68406;53.914;27.416;2023-12-20T00:26:38;6.6;5.7;4.3
78999;PMS7003;68406;53.914;27.416;2023-12-20T00:32:17;6.2;5.1;3.7
78999;PMS7003;68406;53.914;27.416;2023-12-20T00:36:41;6;5;4
78999;PMS7003;68406;53.914;27.416;2023-12-20T00:42:04;5.7;4.5;3.2
78999;PMS7003;68406;53.914;27.416;2023-12-20T00:46:38;5.8;4.8;3.4
78999;PMS7003;68406;53.914;27.416;2023-12-20T00:51:44;5.2;4.5;3.4
78999;PMS7003;68406;53.914;27.416;2023-12-20T00:57:16;5.5;4.5;3.2
78999;PMS7003;68406;53.914;27.416;2023-12-20T01:02:08;5;3.9;2.9
78999;PMS7003;68406;53.914;27.416;2023-12-20T01:07:18;6;4.6;3.5
78999;PMS7003;68406;53.914;27.416;2023-12-20T01:12:09;5.3;4;3.2
78999;PMS7003;68406;53.914;27.416;2023-12-20T01:16:54;5.5;4;3.2
78999;PMS7003;68406;53.914;27.416;2023-12-20T01:22:18;4.3;3.7;2.9
78999;PMS7003;68406;53.914;27.416;2023-12-20T01:26:48;4.1;3.5;2.7
78999;PMS7003;68406;53.914;27.416;2023-12-20T01:31:46;4.4;3.5;2.7
78999;PMS7003;68406;53.914;27.416;2023-12-20T01:36:46;4.1;3.1;2.4
78999;PMS7003;68406;53.914;27.416;2023-12-20T01:41:44;4.1;3.1;2.3
78999;PMS7003;68406;53.914;27.416;2023-12-20T01:47:18;4.6;3.5;2.7
78999;PMS7003;68406;53.914;27.416;2023-12-20T01:51:46;3;2.4;1.8
78999;PMS7003;68406;53.914;27.416;2023-12-20T01:57:16;3.2;2.7;1.7
78999;PMS7003;68406;53.914;27.416;2023-12-20T02:02:08;3.4;3;2.3
78999;PMS7003;68406;53.914;27.416;2023-12-20T02:06:38;3.5;2.5;1.9
78999;PMS7003;68406;53.914;27.416;2023-12-20T02:12:18;2.7;2.3;1.5
78999;PMS7003;68406;53.914;27.416;2023-12-20T02:17:08;3.5;2.7;2.1
78999;PMS7003;68406;53.914;27.416;2023-12-20T02:22:18;3.6;3;2.4
78999;PMS7003;68406;53.914;27.416;2023-12-20T02:26:46;3.5;3;2.3
78999;PMS7003;68406;53.914;27.416;2023-12-20T02:31:56;3.2;2.5;1.9
78999;PMS7003;68406;53.914;27.416;2023-12-20T02:37:08;3.7;3;2.4
78999;PMS7003;68406;53.914;27.416;2023-12-20T02:42:18;3.3;2.6;2
78999;PMS7003;68406;53.914;27.416;2023-12-20T02:46:38;3.4;2.6;2
78999;PMS7003;68406;53.914;27.416;2023-12-20T02:51:40;3.6;3;2.5
78999;PMS7003;68406;53.914;27.416;2023-12-20T02:56:54;3.6;3.2;2.5
78999;PMS7003;68406;53.914;27.416;2023-12-20T03:01:54;3.7;3.1;2.5
78999;PMS7003;68406;53.914;27.416;2023-12-20T03:07:18;4;3.3;2.5
78999;PMS7003;68406;53.914;27.416;2023-12-20T03:11:38;4;3.3;2.8
78999;PMS7003;68406;53.914;27.416;2023-12-20T03:16:47;4.1;3.5;2.6
78999;PMS7003;68406;53.914;27.416;2023-12-20T03:21:58;3.9;3.4;2.6
78999;PMS7003;68406;53.914;27.416;2023-12-20T03:27:08;4.6;3.5;2.7
78999;PMS7003;68406;53.914;27.416;2023-12-20T03:32:18;3.5;2.8;2.4
78999;PMS7003;68406;53.914;27.416;2023-12-20T03:37:08;4.1;3.5;2.6
78999;PMS7003;68406;53.914;27.416;2023-12-20T03:42:05;4.6;3.6;2.8
78999;PMS7003;68406;53.914;27.416;2023-12-20T03:46:54;4.4;4;3.2
78999;PMS7003;68406;53.914;27.416;2023-12-20T03:52:21;4.2;3.3;2.5
78999;PMS7003;68406;53.914;27.416;2023-12-20T03:57:18;3.9;3.5;2.8
78999;PMS7003;68406;53.914;27.416;2023-12-20T04:01:52;4;3.1;2.4
78999;PMS7003;68406;53.914;27.416;2023-12-20T04:06:55;4;3.1;2.4
78999;PMS7003;68406;53.914;27.416;2023-12-20T04:11:45;4.3;3.5;3.1
78999;PMS7003;68406;53.914;27.416;2023-12-20T04:16:41;4.2;3.6;2.8
78999;PMS7003;68406;53.914;27.416;2023-12-20T04:22:19;4.6;3.7;2.9
78999;PMS7003;68406;53.914;27.416;2023-12-20T04:27:09;4.8;3.5;2.8
78999;PMS7003;68406;53.914;27.416;2023-12-20T04:32:05;5.1;4;3.2
78999;PMS7003;68406;53.914;27.416;2023-12-20T04:36:46;4.9;3;2.4
78999;PMS7003;68406;53.914;27.416;2023-12-20T04:41:55;5.7;4.8;3.7
78999;PMS7003;68406;53.914;27.416;2023-12-20T04:47:18;3.8;2.7;2
78999;PMS7003;68406;53.914;27.416;2023-12-20T04:51:39;3.5;3;2.6
78999;PMS7003;68406;53.914;27.416;2023-12-20T04:56:47;5.6;3.9;3.2
78999;PMS7003;68406;53.914;27.416;2023-12-20T05:01:51;5;4;3.2
78999;PMS7003;68406;53.914;27.416;2023-12-20T05:07:07;4.6;3.9;3
78999;PMS7003;68406;53.914;27.416;2023-12-20T05:12:19;4.4;3.5;2.7
78999;PMS7003;68406;53.914;27.416;2023-12-20T05:16:47;4.4;3.6;2.8
78999;PMS7003;68406;53.914;27.416;2023-12-20T05:21:47;3.8;3.4;2.7
78999;PMS7003;68406;53.914;27.416;2023-12-20T05:26:39;4.9;4.4;3.6
78999;PMS7003;68406;53.914;27.416;2023-12-20T05:31:55;4.2;3.7;2.8
78999;PMS7003;68406;53.914;27.416;2023-12-20T05:37:19;4.6;4;3.2
78999;PMS7003;68406;53.914;27.416;2023-12-20T05:41:57;4.6;4;3.1
78999;PMS7003;68406;53.914;27.416;2023-12-20T05:47:19;3.5;2.5;2
78999;PMS7003;68406;53.914;27.416;2023-12-20T05:51:45;3.3;2.9;2.3
78999;PMS7003;68406;53.914;27.416;2023-12-20T05:57:09;3.3;2.6;2.2
78999;PMS7003;68406;53.914;27.416;2023-12-20T06:02:01;3;2.4;1.9
78999;PMS7003;68406;53.914;27.416;2023-12-20T06:07:09;2.7;2.4;1.9
78999;PMS7003;68406;53.914;27.416;2023-12-20T06:12:19;3.3;2.6;2.2
78999;PMS7003;68406;53.914;27.416;2023-12-20T06:16:39;3.1;2.6;2
78999;PMS7003;68406;53.914;27.416;2023-12-20T06:21:39;3;2.4;2
78999;PMS7003;68406;53.914;27.416;2023-12-20T06:27:19;2.5;2.1;1.7
78999;PMS7003;68406;53.914;27.416;2023-12-20T06:31:39;3.8;3.2;2.4
78999;PMS7003;68406;53.914;27.416;2023-12-20T06:36:39;3;2.4;1.9
78999;PMS7003;68406;53.914;27.416;2023-12-20T06:41:39;3.1;2.8;2.2
78999;PMS7003;68406;53.914;27.416;2023-12-20T06:47:09;5.5;4.3;3.2
78999;PMS7003;68406;53.914;27.416;2023-12-20T06:52:11;4.5;3.5;2.8
78999;PMS7003;68406;53.914;27.416;2023-12-20T06:56:55;3.6;2.8;2.2
78999;PMS7003;68406;53.914;27.416;2023-12-20T07:02:03;4.6;3.7;3
78999;PMS7003;68406;53.914;27.416;2023-12-20T07:06:39;3.9;3.1;2.5
78999;PMS7003;68406;53.914;27.416;2023-12-20T07:11:55;2.8;2.5;1.8
78999;PMS7003;68406;53.914;27.416;2023-12-20T07:17:11;3;2.8;2.1
78999;PMS7003;68406;53.914;27.416;2023-12-20T07:22:01;3.9;2.8;2.1
78999;PMS7003;68406;53.914;27.416;2023-12-20T07:26:47;4.2;3.6;2.8
78999;PMS7003;68406;53.914;27.416;2023-12-20T07:32:11;3.8;3.4;2.7
78999;PMS7003;68406;53.914;27.416;2023-12-20T07:37:09;3.5;2.6;2
78999;PMS7003;68406;53.914;27.416;2023-12-20T07:42:19;4.9;3.7;3
78999;PMS7003;68406;53.914;27.416;2023-12-20T07:46:53;4;3.3;2.6
78999;PMS7003;68406;53.914;27.416;2023-12-20T07:52:01;4.4;3.3;2.8
78999;PMS7003;68406;53.914;27.416;2023-12-20T07:56:57;5.4;4.3;3.3
78999;PMS7003;68406;53.914;27.416;2023-12-20T08:01:45;5.4;4.3;3.2
78999;PMS7003;68406;53.914;27.416;2023-12-20T08:07:21;4.4;3.8;2.9
78999;PMS7003;68406;53.914;27.416;2023-12-20T08:11:39;4.7;3.7;2.8
78999;PMS7003;68406;53.914;27.416;2023-12-20T08:16:47;3.9;3.2;2.2
78999;PMS7003;68406;53.914;27.416;2023-12-20T08:22:21;5.1;4.1;3.3
78999;PMS7003;68406;53.914;27.416;2023-12-20T08:27:09;4.8;4.3;3.3
78999;PMS7003;68406;53.914;27.416;2023-12-20T08:32:09;4.8;3.4;2.6
78999;PMS7003;68406;53.914;27.416;2023-12-20T08:36:39;5.4;4.5;3.6
78999;PMS7003;68406;53.914;27.416;2023-12-20T08:42:06;5.6;4.4;3.3
78999;PMS7003;68406;53.914;27.416;2023-12-20T08:47:21;5.2;4.2;3.1
78999;PMS7003;68406;53.914;27.416;2023-12-20T08:51:53;6.8;4.9;3.6
78999;PMS7003;68406;53.914;27.416;2023-12-20T08:57:19;7.2;5.4;4.1
78999;PMS7003;68406;53.914;27.416;2023-12-20T09:02:09;5.8;5;3.9
78999;PMS7003;68406;53.914;27.416;2023-12-20T09:06:47;4.6;3.8;2.8
78999;PMS7003;68406;53.914;27.416;2023-12-20T09:12:01;6;4.9;3.3
78999;PMS7003;68406;53.914;27.416;2023-12-20T09:17:01;5.8;4.4;3.3
78999;PMS7003;68406;53.914;27.416;2023-12-20T09:22:11;6.4;5;3.9
78999;PMS7003;68406;53.914;27.416;2023-12-20T09:26:47;5.8;4.8;3.6
78999;PMS7003;68406;53.914;27.416;2023-12-20T09:31:49;7.3;5.4;4
78999;PMS7003;68406;53.914;27.416;2023-12-20T09:37:19;6.3;5.2;4
78999;PMS7003;68406;53.914;27.416;2023-12-20T09:41:40;6.4;5.1;3.9
78999;PMS7003;68406;53.914;27.416;2023-12-20T09:47:19;6.2;4.6;3.5
78999;PMS7003;68406;53.914;27.416;2023-12-20T09:52:21;6.2;4.8;3.7
78999;PMS7003;68406;53.914;27.416;2023-12-20T09:56:47;5.3;4.3;3.1
78999;PMS7003;68406;53.914;27.416;2023-12-20T10:02:19;6.4;5.1;3.6
78999;PMS7003;68406;53.914;27.416;2023-12-20T10:07:09;6.4;4.3;3.1
78999;PMS7003;68406;53.914;27.416;2023-12-20T10:12:21;4.6;3.7;2.7
78999;PMS7003;68406;53.914;27.416;2023-12-20T10:16:56;5.8;5;3.6
78999;PMS7003;68406;53.914;27.416;2023-12-20T10:22:05;6.2;4.9;3.8
78999;PMS7003;68406;53.914;27.416;2023-12-20T10:27:21;4.4;3.2;2.2
78999;PMS7003;68406;53.914;27.416;2023-12-20T10:32:25;3.8;3.4;2.5
78999;PMS7003;68406;53.914;27.416;2023-12-20T10:37:23;4.4;3.9;3.1
78999;PMS7003;68406;53.914;27.416;2023-12-20T10:41:51;5.7;4.1;2.8
78999;PMS7003;68406;53.914;27.416;2023-12-20T10:47:17;6.2;4.9;3.9
78999;PMS7003;68406;53.914;27.416;2023-12-20T10:52:21;5.3;3.9;2.9
78999;PMS7003;68406;53.914;27.416;2023-12-20T10:57:09;4.6;4.2;3.1
78999;PMS7003;68406;53.914;27.416;2023-12-20T11:02:11;4.7;4.4;3.4
78999;PMS7003;68406;53.914;27.416;2023-12-20T11:06:56;4.7;3.7;2.8
78999;PMS7003;68406;53.914;27.416;2023-12-20T11:12:08;5.4;4.5;3.5
78999;PMS7003;68406;53.914;27.416;2023-12-20T11:17:05;6.7;5.8;4.6
78999;PMS7003;68406;53.914;27.416;2023-12-20T11:22:17;5.7;4;3.1
78999;PMS7003;68406;53.914;27.416;2023-12-20T11:27:21;6.4;4.7;3.7
78999;PMS7003;68406;53.914;27.416;2023-12-20T11:31:47;5.6;4.6;3.6
78999;PMS7003;68406;53.914;27.416;2023-12-20T11:36:58;5.6;4.8;3.8
78999;PMS7003;68406;53.914;27.416;2023-12-20T11:42:03;4.7;3.4;2.6
78999;PMS7003;68406;53.914;27.416;2023-12-20T11:46:51;5.2;4.2;3.4
78999;PMS7003;68406;53.914;27.416;2023-12-20T11:51:55;4.9;4.1;3
78999;PMS7003;68406;53.914;27.416;2023-12-20T11:57:21;6.3;4.9;3.7
78999;PMS7003;68406;53.914;27.416;2023-12-20T12:02:21;5.8;4.2;3.2
78999;PMS7003;68406;53.914;27.416;2023-12-20T12:07:05;5.9;4.8;3.6
78999;PMS7003;68406;53.914;27.416;2023-12-20T12:11:47;5.4;4.2;3.3
78999;PMS7003;68406;53.914;27.416;2023-12-20T12:16:39;5.8;5;3.7
78999;PMS7003;68406;53.914;27.416;2023-12-20T12:21:47;5.8;4.7;3.6
78999;PMS7003;68406;53.914;27.416;2023-12-20T12:26:49;6.8;5.2;4
78999;PMS7003;68406;53.914;27.416;2023-12-20T12:32:13;6.8;5.9;4.3
78999;PMS7003;68406;53.914;27.416;2023-12-20T12:36:39;7.3;5.5;4.2
78999;PMS7003;68406;53.914;27.416;2023-12-20T12:42:07;6.6;5.3;4
78999;PMS7003;68406;53.914;27.416;2023-12-20T12:47:13;7.8;6.2;4.4
78999;PMS7003;68406;53.914;27.416;2023-12-20T12:52:07;7.4;6.3;4.8
78999;PMS7003;68406;53.914;27.416;2023-12-20T12:57:05;6.6;5.5;4.2
78999;PMS7003;68406;53.914;27.416;2023-12-20T13:01:39;5.3;4.4;3.4
78999;PMS7003;68406;53.914;27.416;2023-12-20T13:06:47;6.3;5;4
78999;PMS7003;68406;53.914;27.416;2023-12-20T13:11:59;7.9;5.8;4.2
78999;PMS7003;68406;53.914;27.416;2023-12-20T13:16:39;7.3;6.2;4.7
78999;PMS7003;68406;53.914;27.416;2023-12-20T13:22:21;9;7.2;5.6
78999;PMS7003;68406;53.914;27.416;2023-12-20T13:27:21;12.2;10.1;7.5
78999;PMS7003;68406;53.914;27.416;2023-12-20T13:31:57;13;10.3;7.5
78999;PMS7003;68406;53.914;27.416;2023-12-20T13:37:19;9.1;7.5;5.6
78999;PMS7003;68406;53.914;27.416;2023-12-20T13:41:57;8.6;7.1;5.3
78999;PMS7003;68406;53.914;27.416;2023-12-20T13:47:07;7.9;6.6;4.7
78999;PMS7003;68406;53.914;27.416;2023-12-20T13:51:53;8.5;6.8;5.4
78999;PMS7003;68406;53.914;27.416;2023-12-20T13:56:39;6.9;5.7;4.3
78999;PMS7003;68406;53.914;27.416;2023-12-20T14:02:01;8.4;7;5.1
78999;PMS7003;68406;53.914;27.416;2023-12-20T14:06:47;8.7;7;5.3
78999;PMS7003;68406;53.914;27.416;2023-12-20T14:12:19;8.3;6.7;5.2
78999;PMS7003;68406;53.914;27.416;2023-12-20T14:16:59;6.8;5.5;4.1
78999;PMS7003;68406;53.914;27.416;2023-12-20T14:22:05;8.2;6.8;4.5
78999;PMS7003;68406;53.914;27.416;2023-12-20T14:27:21;9.1;7.5;5.5
78999;PMS7003;68406;53.914;27.416;2023-12-20T14:32:05;11;9.8;7.1
78999;PMS7003;68406;53.914;27.416;2023-12-20T14:36:47;10;8.5;6.1
78999;PMS7003;68406;53.914;27.416;2023-12-20T14:41:39;7.6;5.5;4.3
78999;PMS7003;68406;53.914;27.416;2023-12-20T14:46:39;10.7;8.6;6.2
78999;PMS7003;68406;53.914;27.416;2023-12-20T14:51:39;11.6;9.9;7.1
78999;PMS7003;68406;53.914;27.416;2023-12-20T14:57:03;10.1;7.5;5.5
78999;PMS7003;68406;53.914;27.416;2023-12-20T15:02:21;9.6;8.2;6.3
78999;PMS7003;68406;53.914;27.416;2023-12-20T15:06:39;6.7;5.6;4.1
78999;PMS7003;68406;53.914;27.416;2023-12-20T15:11:41;5.6;4.9;3.6
78999;PMS7003;68406;53.914;27.416;2023-12-20T15:17:19;6.1;4.6;3.6
78999;PMS7003;68406;53.914;27.416;2023-12-20T15:21:57;5.4;4.3;3.6
78999;PMS7003;68406;53.914;27.416;2023-12-20T15:27:07;6.7;5.3;4.3
78999;PMS7003;68406;53.914;27.416;2023-12-20T15:31:47;5.5;4.2;3.4
78999;PMS7003;68406;53.914;27.416;2023-12-20T15:36:45;9.8;8.3;6
78999;PMS7003;68406;53.914;27.416;2023-12-20T15:41:39;9.5;7.5;5.6
78999;PMS7003;68406;53.914;27.416;2023-12-20T15:46:47;5.3;4.9;3.8
78999;PMS7003;68406;53.914;27.416;2023-12-20T15:52:17;4.6;3.3;2.5
78999;PMS7003;68406;53.914;27.416;2023-12-20T15:56:47;2.6;2.1;1.7
78999;PMS7003;68406;53.914;27.416;2023-12-20T16:02:03;3;2.2;1.8
78999;PMS7003;68406;53.914;27.416;2023-12-20T16:07:07;3.3;2.4;1.8
78999;PMS7003;68406;53.914;27.416;2023-12-20T16:11:41;10.5;9.1;6.8
78999;PMS7003;68406;53.914;27.416;2023-12-20T16:17:17;11.5;9.6;6.9
78999;PMS7003;68406;53.914;27.416;2023-12-20T16:21:55;9;7.9;6
78999;PMS7003;68406;53.914;27.416;2023-12-20T16:26:55;5.5;4.1;3.2
78999;PMS7003;68406;53.914;27.416;2023-12-20T16:31:47;3.7;2.8;2.3
78999;PMS7003;68406;53.914;27.416;2023-12-20T16:37:11;3;2.6;2.2
78999;PMS7003;68406;53.914;27.416;2023-12-20T16:42:07;4.4;3.5;2.8
78999;PMS7003;68406;53.914;27.416;2023-12-20T16:47:23;3.2;2.4;2
78999;PMS7003;68406;53.914;27.416;2023-12-20T16:52:11;2.9;2.6;2.2
78999;PMS7003;68406;53.914;27.416;2023-12-20T16:57:07;2.9;2.2;1.8
78999;PMS7003;68406;53.914;27.416;2023-12-20T17:02:19;3;2.1;1.7
78999;PMS7003;68406;53.914;27.416;2023-12-20T17:07:21;2.3;1.7;1.4
78999;PMS7003;68406;53.914;27.416;2023-12-20T17:11:39;1.6;1.3;1.1
78999;PMS7003;68406;53.914;27.416;2023-12-20T17:16:39;2.5;2;1.5
78999;PMS7003;68406;53.914;27.416;2023-12-20T17:22:19;3.1;2.2;1.7
78999;PMS7003;68406;53.914;27.416;2023-12-20T17:26:59;3.5;3.2;2.5
78999;PMS7003;68406;53.914;27.416;2023-12-20T17:32:11;3.8;3.2;2.6
78999;PMS7003;68406;53.914;27.416;2023-12-20T17:36:47;4.9;4.2;3.6
78999;PMS7003;68406;53.914;27.416;2023-12-20T17:42:21;3.3;2.4;1.9
78999;PMS7003;68406;53.914;27.416;2023-12-20T17:47:11;2.1;1.6;1.3
78999;PMS7003;68406;53.914;27.416;2023-12-20T17:51:39;2.5;1.8;1.4
78999;PMS7003;68406;53.914;27.416;2023-12-20T17:57:23;2.4;1.5;1.2
78999;PMS7003;68406;53.914;27.416;2023-12-20T18:02:03;2.8;1.7;1.4
78999;PMS7003;68406;53.914;27.416;2023-12-20T18:06:39;5;3.9;3
78999;PMS7003;68406;53.914;27.416;2023-12-20T18:11:51;2.5;2.1;1.5
78999;PMS7003;68406;53.914;27.416;2023-12-20T18:16:39;1.8;1.6;1.1
78999;PMS7003;68406;53.914;27.416;2023-12-20T18:21:59;1.8;1.5;1.3
78999;PMS7003;68406;53.914;27.416;2023-12-20T18:26:39;2;1.4;1.1
78999;PMS7003;68406;53.914;27.416;2023-12-20T18:32:17;1.6;1.1;0.8
78999;PMS7003;68406;53.914;27.416;2023-12-20T18:37:11;1.2;1.2;1
78999;PMS7003;68406;53.914;27.416;2023-12-20T18:41:55;1.4;1;0.7
78999;PMS7003;68406;53.914;27.416;2023-12-20T18:47:21;1.5;1.4;1
78999;PMS7003;68406;53.914;27.416;2023-12-20T18:51:47;1.7;1.3;1
78999;PMS7003;68406;53.914;27.416;2023-12-20T18:56:53;1.8;1.3;0.9
78999;PMS7003;68406;53.914;27.416;2023-12-20T19:02:01;1.3;1;0.7
78999;PMS7003;68406;53.914;27.416;2023-12-20T19:07:09;1.5;1.3;0.8
78999;PMS7003;68406;53.914;27.416;2023-12-20T19:12:09;2.2;1.5;1
78999;PMS7003;68406;53.914;27.416;2023-12-20T19:16:51;2.7;1.8;1.5
78999;PMS7003;68406;53.914;27.416;2023-12-20T19:22:17;2.8;1.9;1.6
78999;PMS7003;68406;53.914;27.416;2023-12-20T19:27:13;2.4;1.9;1.6
78999;PMS7003;68406;53.914;27.416;2023-12-20T19:32:19;3.1;2;1.4
78999;PMS7003;68406;53.914;27.416;2023-12-20T19:37:23;3.3;2.1;1.5
78999;PMS7003;68406;53.914;27.416;2023-12-20T19:41:39;3;2.1;1.8
78999;PMS7003;68406;53.914;27.416;2023-12-20T19:47:15;3.6;2.7;2.2
78999;PMS7003;68406;53.914;27.416;2023-12-20T19:51:47;3.4;2.5;2
78999;PMS7003;68406;53.914;27.416;2023-12-20T19:56:51;3.3;2.5;1.9
78999;PMS7003;68406;53.914;27.416;2023-12-20T20:02:03;3.2;2.8;2.1
78999;PMS7003;68406;53.914;27.416;2023-12-20T20:07:01;2.7;2.3;1.8
78999;PMS7003;68406;53.914;27.416;2023-12-20T20:12:21;3.1;2.6;2.1
78999;PMS7003;68406;53.914;27.416;2023-12-20T20:17:01;3.6;2.9;2.2
78999;PMS7003;68406;53.914;27.416;2023-12-20T20:21:39;4.2;2.9;2.3
78999;PMS7003;68406;53.914;27.416;2023-12-20T20:27:21;3.9;3;2.1
78999;PMS7003;68406;53.914;27.416;2023-12-20T20:31:55;3.9;3;2.1
78999;PMS7003;68406;53.914;27.416;2023-12-20T20:36:45;5.7;4.7;3.4
78999;PMS7003;68406;53.914;27.416;2023-12-20T20:41:47;4;3.1;2.3
78999;PMS7003;68406;53.914;27.416;2023-12-20T20:46:47;6.3;3.9;3
78999;PMS7003;68406;53.914;27.416;2023-12-20T20:52:23;4.7;3.7;2.7
78999;PMS7003;68406;53.914;27.416;2023-12-20T20:57:11;5.4;4.1;2.9
78999;PMS7003;68406;53.914;27.416;2023-12-20T21:01:47;6.2;4.4;3.3
78999;PMS7003;68406;53.914;27.416;2023-12-20T21:06:41;5;3.9;3
78999;PMS7003;68406;53.914;27.416;2023-12-20T21:12:03;4.5;3.3;2.8
78999;PMS7003;68406;53.914;27.416;2023-12-20T21:17:17;5.5;4.1;3.2
78999;PMS7003;68406;53.914;27.416;2023-12-20T21:21:55;5.4;4.2;3.3
78999;PMS7003;68406;53.914;27.416;2023-12-20T21:26:55;5.7;4.3;3.3
78999;PMS7003;68406;53.914;27.416;2023-12-20T21:32:11;4.9;3.8;3
78999;PMS7003;68406;53.914;27.416;2023-12-20T21:36:59;5.3;4.3;3
78999;PMS7003;68406;53.914;27.416;2023-12-20T21:42:21;4.1;3.1;2.4
78999;PMS7003;68406;53.914;27.416;2023-12-20T21:47:11;5.9;3.7;2.8
78999;PMS7003;68406;53.914;27.416;2023-12-20T21:52:05;4.1;3.2;2.4
78999;PMS7003;68406;53.914;27.416;2023-12-20T21:57:09;4.3;3;2.4
78999;PMS7003;68406;53.914;27.416;2023-12-20T22:01:53;4.5;3.6;2.8
78999;PMS7003;68406;53.914;27.416;2023-12-20T22:07:19;5.1;4;2.9
78999;PMS7003;68406;53.914;27.416;2023-12-20T22:12:23;4.7;4.2;3.1
78999;PMS7003;68406;53.914;27.416;2023-12-20T22:16:39;5.1;4;3
78999;PMS7003;68406;53.914;27.416;2023-12-20T22:21:47;4.7;4.1;3.1
78999;PMS7003;68406;53.914;27.416;2023-12-20T22:26:51;5.5;4.8;3.5
78999;PMS7003;68406;53.914;27.416;2023-12-20T22:32:23;5.3;4.1;3
78999;PMS7003;68406;53.914;27.416;2023-12-20T22:37:11;5.8;4.5;3.1
78999;PMS7003;68406;53.914;27.416;2023-12-20T22:41:47;5.8;4.6;3.5
78999;PMS7003;68406;53.914;27.416;2023-12-20T22:47:01;7;5;3.6
78999;PMS7003;68406;53.914;27.416;2023-12-20T22:52:23;5.8;4.4;3.2
78999;PMS7003;68406;53.914;27.416;2023-12-20T22:57:17;6.8;4.9;3.9
78999;PMS7003;68406;53.914;27.416;2023-12-20T23:01:45;4.3;3.5;2.6
78999;PMS7003;68406;53.914;27.416;2023-12-20T23:06:53;3.7;2.5;1.8
78999;PMS7003;68406;53.914;27.416;2023-12-20T23:11:39;4.3;2.7;1.8
78999;PMS7003;68406;53.914;27.416;2023-12-20T23:16:39;3.7;3.1;2.1
78999;PMS7003;68406;53.914;27.416;2023-12-20T23:22:23;4.9;4.1;2.7
78999;PMS7003;68406;53.914;27.416;2023-12-20T23:27:13;6;4.4;3.3
78999;PMS7003;68406;53.914;27.416;2023-12-20T23:31:53;5.5;4.3;3.4
78999;PMS7003;68406;53.914;27.416;2023-12-20T23:37:09;6.9;4.5;3.3
78999;PMS7003;68406;53.914;27.416;2023-12-20T23:42:09;6.1;4.6;3.5
78999;PMS7003;68406;53.914;27.416;2023-12-20T23:47:21;7;5.4;3.5
78999;PMS7003;68406;53.914;27.416;2023-12-20T23:51:45;7.1;5.3;4
78999;PMS7003;68406;53.914;27.416;2023-12-20T23:56:47;8;6;4.2
